Aguilares, Texas
Current Conditions -  °F | °C
As of 7:15 AM on Sunday 23 Nov 2014 (Local Time) from KHBV Reporting Station
Haze Haze  
Wind Chill: 57°   Ceiling: Unl
Heat Index: 57°   Visibility: 4mi
Dew Point: 53°   Wind: 7mph
Humidity: 88%   Direction: 230°SW
Pressure: 29.76"   Gusts: NA
Location:  27.4459°N, 99.0184°W
Report Text: KHBV 231315Z AUTO 23006KT 4SM BR CLR 14/12 A2976 RMK AO2 T01380119
Loading
Personal Weather Stations






























Interactive Weather Map New forecast layout! Learn more

10-Day Weather Forecast

Advertisements
Track Severe Weather on mobile